Tiger — 9HA2271 — position and weather

sailwx.info

Track history (hours):
 
Tides and Currents Weather Stations Pressure Air Temp Water Temp Dewpoint Dewpoint Depression Visibility Wind Speed Wind Dir Waves Ship Positions

Tiger

Last reported at 2018-Apr-21 03:58 UTC. Time now 2018-Apr-21 04:12 UTC.
Position N 41°20' E 002°09'.

Length 231 m; draft 9.4 m.

Type: Cargo ship. MMSI: 248223000.

Date/timePositionNaut miles runAvg speedWind from/ knotsBaromVisibWave heightAir tempDewpointWater temp
2018-Apr-21 03:58N 41°20' E 002°09'0 0.0
2018-Apr-21 03:28N 41°20' E 002°09'0 0.0
2018-Apr-21 02:58N 41°20' E 002°09'0 0.0
2018-Apr-21 02:28N 41°20' E 002°09'0 0.0
2018-Apr-21 01:58N 41°20' E 002°09'0 0.0
2018-Apr-21 01:28N 41°20' E 002°09'0 0.1
2018-Apr-21 01:00N 41°20' E 002°09'1 1.9
2018-Apr-21 00:30N 41°20' E 002°10'3 6.4
2018-Apr-21 00:00N 41°17' E 002°11'611.8
2018-Apr-20 23:31N 41°13' E 002°17'816.4
2018-Apr-20 23:00N 41°09' E 002°26'816.8
2018-Apr-20 22:30N 41°05' E 002°36'58615.9
2018-Apr-19 09:46N 36°35' E 013°44'518.1
2018-Apr-19 09:29N 36°34' E 013°50'918.6
2018-Apr-19 08:59N 36°31' E 014°01'918.3
2018-Apr-19 08:30N 36°28' E 014°11'1020.5
2018-Apr-19 07:59N 36°25' E 014°24'917.8
2018-Apr-19 07:30N 36°22' E 014°34'918.3
2018-Apr-19 07:00N 36°20' E 014°45'918.0
2018-Apr-19 06:31N 36°19' E 014°56'  
2018-Apr-17 01:55N 37°35' E 023°57'818.6
2018-Apr-17 01:31N 37°37' E 023°48'918.1
2018-Apr-17 01:01N 37°43' E 023°40'917.8
2018-Apr-17 00:31N 37°52' E 023°37'510.5
2018-Apr-17 00:00N 37°57' E 023°36'1 1.5
2018-Apr-16 23:28N 37°58' E 023°36'0 0.0
2018-Apr-16 22:58N 37°58' E 023°36'0 0.0
2018-Apr-16 22:28N 37°58' E 023°36'0 0.0
2018-Apr-16 21:58N 37°58' E 023°36'0 0.0
2018-Apr-16 21:28N 37°58' E 023°36'0 0.0
2018-Apr-16 20:58N 37°58' E 023°36'0 0.0
2018-Apr-16 20:28N 37°58' E 023°36'0 0.0
2018-Apr-16 19:58N 37°58' E 023°36'0 0.0
2018-Apr-16 19:28N 37°58' E 023°36'0 0.0
2018-Apr-16 18:58N 37°58' E 023°36'0 0.0
2018-Apr-16 18:28N 37°58' E 023°36'0 0.0
2018-Apr-16 17:58N 37°58' E 023°36'0 0.0
2018-Apr-16 17:28N 37°58' E 023°36'0 0.0
2018-Apr-16 16:58N 37°58' E 023°36'0 0.0
2018-Apr-16 16:28N 37°58' E 023°36'0 0.0
2018-Apr-16 15:58N 37°58' E 023°36'0 0.0
2018-Apr-16 15:28N 37°58' E 023°36'0 0.0
2018-Apr-16 14:58N 37°58' E 023°36'0 0.0
2018-Apr-16 14:28N 37°58' E 023°36'0 0.0
2018-Apr-16 13:58N 37°58' E 023°36'0 0.0
2018-Apr-16 13:28N 37°58' E 023°36'0 0.2
2018-Apr-16 13:01N 37°58' E 023°36'3 5.4
2018-Apr-16 12:31N 37°55' E 023°36'0 0.7
2018-Apr-16 12:01N 37°55' E 023°35'2 3.7
2018-Apr-16 11:30N 37°53' E 023°35'0 0.9
2018-Apr-16 11:01N 37°53' E 023°35'0 0.4
2018-Apr-16 10:31N 37°52' E 023°35'0 0.4
2018-Apr-16 10:01N 37°52' E 023°35'0 0.1
2018-Apr-16 09:30N 37°52' E 023°35'0 0.2
2018-Apr-16 09:01N 37°52' E 023°35'0 0.1
2018-Apr-16 08:31N 37°52' E 023°35'0 0.2
2018-Apr-16 08:01N 37°52' E 023°35'0 0.2
2018-Apr-16 07:31N 37°52' E 023°35'0 0.4
2018-Apr-16 07:00N 37°52' E 023°35'0 0.1
2018-Apr-16 06:31N 37°52' E 023°35'0 0.2
2018-Apr-16 06:01N 37°52' E 023°35'0 0.1
2018-Apr-16 05:30N 37°52' E 023°35'0 0.1
2018-Apr-16 05:00N 37°52' E 023°35'0 0.1
2018-Apr-16 04:31N 37°52' E 023°35'0 0.2
2018-Apr-16 04:01N 37°52' E 023°35'0 0.4
2018-Apr-16 03:31N 37°52' E 023°35'0 0.2
2018-Apr-16 03:01N 37°52' E 023°35'0 0.7
2018-Apr-16 02:31N 37°52' E 023°35'0 0.7
2018-Apr-16 02:00N 37°52' E 023°35'0 0.5
2018-Apr-16 01:31N 37°52' E 023°35'0 0.3
2018-Apr-16 01:00N 37°52' E 023°35'0 0.5
2018-Apr-16 00:30N 37°52' E 023°35'0 0.4
2018-Apr-16 00:01N 37°52' E 023°35'0 0.8
2018-Apr-15 23:30N 37°52' E 023°34'1 2.6
2018-Apr-15 23:01N 37°52' E 023°36'4 8.8
2018-Apr-15 22:30N 37°49' E 023°40'815.3
2018-Apr-15 22:00N 37°42' E 023°44'815.9
2018-Apr-15 21:28N 37°34' E 023°48'48717.7
2018-Apr-14 17:58N 32°14' E 031°15'2319.0
2018-Apr-14 16:47N 32°00' E 031°37'819.0
2018-Apr-14 16:20N 31°56' E 031°45'618.9
2018-Apr-14 16:00N 31°52' E 031°51'  
Track history (hours):
 
Tides and Currents Weather Stations Pressure Air Temp Water Temp Dewpoint Dewpoint Depression Visibility Wind Speed Wind Dir Waves Ship Positions

Tiger

Last reported at 2018-Apr-21 03:58 UTC. Time now 2018-Apr-21 04:12 UTC.
Position N 41°20' E 002°09'.

Length 231 m; draft 9.4 m.

Type: Cargo ship. MMSI: 248223000.

Date/timePositionNaut miles runAvg speedWind from/ knotsBaromVisibWave heightAir tempDewpointWater temp
2018-Apr-21 03:58N 41°20' E 002°09'0 0.0
2018-Apr-21 03:28N 41°20' E 002°09'0 0.0
2018-Apr-21 02:58N 41°20' E 002°09'0 0.0
2018-Apr-21 02:28N 41°20' E 002°09'0 0.0
2018-Apr-21 01:58N 41°20' E 002°09'0 0.0
2018-Apr-21 01:28N 41°20' E 002°09'0 0.1
2018-Apr-21 01:00N 41°20' E 002°09'1 1.9
2018-Apr-21 00:30N 41°20' E 002°10'3 6.4
2018-Apr-21 00:00N 41°17' E 002°11'611.8
2018-Apr-20 23:31N 41°13' E 002°17'816.4
2018-Apr-20 23:00N 41°09' E 002°26'816.8
2018-Apr-20 22:30N 41°05' E 002°36'58615.9
2018-Apr-19 09:46N 36°35' E 013°44'518.1
2018-Apr-19 09:29N 36°34' E 013°50'918.6
2018-Apr-19 08:59N 36°31' E 014°01'918.3
2018-Apr-19 08:30N 36°28' E 014°11'1020.5
2018-Apr-19 07:59N 36°25' E 014°24'917.8
2018-Apr-19 07:30N 36°22' E 014°34'918.3
2018-Apr-19 07:00N 36°20' E 014°45'918.0
2018-Apr-19 06:31N 36°19' E 014°56'  
2018-Apr-17 01:55N 37°35' E 023°57'818.6
2018-Apr-17 01:31N 37°37' E 023°48'918.1
2018-Apr-17 01:01N 37°43' E 023°40'917.8
2018-Apr-17 00:31N 37°52' E 023°37'510.5
2018-Apr-17 00:00N 37°57' E 023°36'1 1.5
2018-Apr-16 23:28N 37°58' E 023°36'0 0.0
2018-Apr-16 22:58N 37°58' E 023°36'0 0.0
2018-Apr-16 22:28N 37°58' E 023°36'0 0.0
2018-Apr-16 21:58N 37°58' E 023°36'0 0.0
2018-Apr-16 21:28N 37°58' E 023°36'0 0.0
2018-Apr-16 20:58N 37°58' E 023°36'0 0.0
2018-Apr-16 20:28N 37°58' E 023°36'0 0.0
2018-Apr-16 19:58N 37°58' E 023°36'0 0.0
2018-Apr-16 19:28N 37°58' E 023°36'0 0.0
2018-Apr-16 18:58N 37°58' E 023°36'0 0.0
2018-Apr-16 18:28N 37°58' E 023°36'0 0.0
2018-Apr-16 17:58N 37°58' E 023°36'0 0.0
2018-Apr-16 17:28N 37°58' E 023°36'0 0.0
2018-Apr-16 16:58N 37°58' E 023°36'0 0.0
2018-Apr-16 16:28N 37°58' E 023°36'0 0.0
2018-Apr-16 15:58N 37°58' E 023°36'0 0.0
2018-Apr-16 15:28N 37°58' E 023°36'0 0.0
2018-Apr-16 14:58N 37°58' E 023°36'0 0.0
2018-Apr-16 14:28N 37°58' E 023°36'0 0.0
2018-Apr-16 13:58N 37°58' E 023°36'0 0.0
2018-Apr-16 13:28N 37°58' E 023°36'0 0.2
2018-Apr-16 13:01N 37°58' E 023°36'3 5.4
2018-Apr-16 12:31N 37°55' E 023°36'0 0.7
2018-Apr-16 12:01N 37°55' E 023°35'2 3.7
2018-Apr-16 11:30N 37°53' E 023°35'0 0.9
2018-Apr-16 11:01N 37°53' E 023°35'0 0.4
2018-Apr-16 10:31N 37°52' E 023°35'0 0.4
2018-Apr-16 10:01N 37°52' E 023°35'0 0.1
2018-Apr-16 09:30N 37°52' E 023°35'0 0.2
2018-Apr-16 09:01N 37°52' E 023°35'0 0.1
2018-Apr-16 08:31N 37°52' E 023°35'0 0.2
2018-Apr-16 08:01N 37°52' E 023°35'0 0.2
2018-Apr-16 07:31N 37°52' E 023°35'0 0.4
2018-Apr-16 07:00N 37°52' E 023°35'0 0.1
2018-Apr-16 06:31N 37°52' E 023°35'0 0.2
2018-Apr-16 06:01N 37°52' E 023°35'0 0.1
2018-Apr-16 05:30N 37°52' E 023°35'0 0.1
2018-Apr-16 05:00N 37°52' E 023°35'0 0.1
2018-Apr-16 04:31N 37°52' E 023°35'0 0.2
2018-Apr-16 04:01N 37°52' E 023°35'0 0.4
2018-Apr-16 03:31N 37°52' E 023°35'0 0.2
2018-Apr-16 03:01N 37°52' E 023°35'0 0.7
2018-Apr-16 02:31N 37°52' E 023°35'0 0.7
2018-Apr-16 02:00N 37°52' E 023°35'0 0.5
2018-Apr-16 01:31N 37°52' E 023°35'0 0.3
2018-Apr-16 01:00N 37°52' E 023°35'0 0.5
2018-Apr-16 00:30N 37°52' E 023°35'0 0.4
2018-Apr-16 00:01N 37°52' E 023°35'0 0.8
2018-Apr-15 23:30N 37°52' E 023°34'1 2.6
2018-Apr-15 23:01N 37°52' E 023°36'4 8.8
2018-Apr-15 22:30N 37°49' E 023°40'815.3
2018-Apr-15 22:00N 37°42' E 023°44'815.9
2018-Apr-15 21:28N 37°34' E 023°48'48717.7
2018-Apr-14 17:58N 32°14' E 031°15'2319.0
2018-Apr-14 16:47N 32°00' E 031°37'819.0
2018-Apr-14 16:20N 31°56' E 031°45'618.9
2018-Apr-14 16:00N 31°52' E 031°51'  

Dump ship's entire track history